Time;durP1;ratioP1;P1;durP2;ratioP2;P2;SDS_P1;SDS_P2;PMS_P1;PMS_P2;Temp;Humidity;BMP_temperature;BMP_pressure;BME280_temperature;BME280_humidity;BME280_pressure;Samples;Min_cycle;Max_cycle;Signal;HPM_P1;HPM_P2
2023/07/02 00:00:11;;;;;;;24.23;7.45;;;15.90;80.30;;;;;;4838579;29;20054;-81
2023/07/02 00:02:37;;;;;;;14.38;6.05;;;16.10;80.60;;;;;;4823814;29;20085;-82
2023/07/02 00:05:03;;;;;;;19.15;7.25;;;;;;;;;;4823568;29;20496;-83
2023/07/02 00:07:29;;;;;;;13.48;6.20;;;;;;;;;;4839000;29;20126;-81
2023/07/02 00:09:55;;;;;;;13.82;6.63;;;;;;;;;;4838724;29;20137;-81
2023/07/02 00:12:22;;;;;;;16.45;6.13;;;;;;;;;;4807952;29;20058;-82
2023/07/02 00:14:47;;;;;;;19.95;6.53;;;16.10;81.60;;;;;;4823498;29;20046;-81
2023/07/02 00:17:13;;;;;;;17.38;7.25;;;16.00;81.80;;;;;;4823266;29;20508;-83
2023/07/02 00:19:41;;;;;;;15.35;7.22;;;;;;;;;;4808199;29;20417;-84
2023/07/02 00:22:08;;;;;;;18.20;7.40;;;15.80;78.60;;;;;;4838297;29;20098;-82
2023/07/02 00:24:35;;;;;;;21.92;7.63;;;;;;;;;;4807818;29;20484;-82
2023/07/02 00:27:01;;;;;;;15.27;6.90;;;;;;;;;;4822895;29;20042;-81
2023/07/02 00:29:27;;;;;;;25.45;8.30;;;;;;;;;;4823251;29;20073;-82
2023/07/02 00:31:53;;;;;;;22.75;7.50;;;;;;;;;;4838501;29;20459;-81
2023/07/02 00:34:19;;;;;;;17.90;6.72;;;;;;;;;;4838084;29;20046;-81
2023/07/02 00:36:45;;;;;;;14.32;7.40;;;;;;;;;;4838282;29;20092;-81
2023/07/02 00:39:12;;;;;;;26.08;7.45;;;;;;;;;;4807795;29;20086;-82
2023/07/02 00:41:38;;;;;;;28.58;8.88;;;;;;;;;;4837901;29;20115;-82
2023/07/02 00:44:04;;;;;;;16.70;6.95;;;;;;;;;;4838111;29;20146;-81
2023/07/02 00:46:30;;;;;;;19.27;6.10;;;15.50;79.40;;;;;;4838194;29;20631;-81
2023/07/02 00:48:57;;;;;;;25.08;7.85;;;;;;;;;;4822735;29;20050;-82
2023/07/02 00:51:27;;;;;;;21.50;7.53;;;15.20;83.20;;;;;;4822767;29;20042;-82
2023/07/02 00:53:54;;;;;;;13.45;6.18;;;15.60;80.60;;;;;;4807339;29;20083;-81
2023/07/02 00:56:21;;;;;;;20.45;8.57;;;;;;;;;;4837720;29;20173;-83
2023/07/02 00:58:50;;;;;;;15.98;7.45;;;15.70;84.50;;;;;;4837610;29;20063;-84
2023/07/02 01:01:16;;;;;;;17.80;7.30;;;;;;;;;;4807381;29;20081;-81
2023/07/02 01:04:02;;;;;;;12.98;7.47;;;15.50;80.30;;;;;;4807509;29;20133;-84
2023/07/02 01:06:40;;;;;;;25.00;8.38;;;15.50;82.40;;;;;;4792467;29;20050;-81
2023/07/02 01:09:07;;;;;;;24.58;7.78;;;15.50;85.30;;;;;;4837506;29;20107;-82
2023/07/02 01:11:36;;;;;;;22.67;8.63;;;15.40;80.50;;;;;;4822460;29;20054;-81
2023/07/02 01:14:03;;;;;;;25.33;8.60;;;;;;;;;;4822620;29;20049;-82
2023/07/02 01:16:32;;;;;;;17.35;8.00;;;;;;;;;;4837648;29;20054;-81
2023/07/02 01:19:02;;;;;;;20.15;7.45;;;;;;;;;;4822258;29;20580;-82
2023/07/02 01:21:28;;;;;;;19.48;7.10;;;;;;;;;;4822851;29;20521;-81
2023/07/02 01:23:54;;;;;;;27.67;9.90;;;;;;;;;;4822585;29;20050;-82
2023/07/02 01:26:21;;;;;;;26.38;8.40;;;;;;;;;;4837405;29;20095;-81
2023/07/02 01:28:47;;;;;;;30.20;9.55;;;;;;;;;;4822299;29;20054;-83
2023/07/02 01:31:19;;;;;;;20.58;7.22;;;;;;;;;;4823163;29;20182;-81
2023/07/02 01:33:45;;;;;;;29.20;7.25;;;;;;;;;;4806605;29;20110;-81
2023/07/02 01:36:12;;;;;;;22.70;9.35;;;;;;;;;;4822098;29;20057;-81
2023/07/02 01:38:38;;;;;;;20.50;7.90;;;;;;;;;;4821929;29;20054;-81
2023/07/02 01:41:04;;;;;;;15.48;8.10;;;;;;;;;;4822421;29;20508;-80
2023/07/02 01:43:29;;;;;;;21.38;8.63;;;15.30;84.10;;;;;;4806712;29;20496;-81
2023/07/02 01:45:56;;;;;;;21.88;8.18;;;;;;;;;;4806833;29;20056;-81
2023/07/02 01:48:22;;;;;;;19.25;8.98;;;;;;;;;;4806950;29;20061;-81
2023/07/02 01:50:47;;;;;;;25.23;9.65;;;15.10;87.80;;;;;;4821915;29;20050;-81
2023/07/02 01:53:13;;;;;;;17.70;7.45;;;;;;;;;;4821911;29;20480;-82
2023/07/02 01:55:39;;;;;;;31.50;9.32;;;;;;;;;;4822031;29;20050;-81
2023/07/02 01:58:06;;;;;;;23.65;8.38;;;;;;;;;;4821932;29;20058;-81
2023/07/02 02:00:31;;;;;;;25.00;9.18;;;15.20;88.60;;;;;;4821819;29;20090;-81
2023/07/02 02:02:58;;;;;;;21.63;8.00;;;;;;;;;;4806694;29;20109;-81
2023/07/02 02:05:24;;;;;;;20.75;9.00;;;;;;;;;;4836891;29;20046;-82
2023/07/02 02:07:50;;;;;;;19.33;8.18;;;;;;;;;;4836953;29;20093;-82
2023/07/02 02:10:16;;;;;;;28.75;8.15;;;;;;;;;;4806515;29;20111;-82
2023/07/02 02:12:41;;;;;;;25.23;9.20;;;15.00;89.40;;;;;;4821743;29;20130;-81
2023/07/02 02:15:07;;;;;;;30.25;9.20;;;;;;;;;;4821513;29;20840;-82
2023/07/02 02:17:35;;;;;;;22.77;9.13;;;;;;;;;;4821523;29;20065;-82
2023/07/02 02:20:01;;;;;;;25.20;8.73;;;;;;;;;;4805990;29;20082;-83
2023/07/02 02:22:27;;;;;;;20.85;7.55;;;;;;;;;;4821703;29;20107;-83
2023/07/02 02:24:52;;;;;;;25.15;8.75;;;15.00;90.10;;;;;;4821549;29;20214;-83
2023/07/02 02:27:19;;;;;;;20.08;7.22;;;;;;;;;;4806277;29;20050;-81
2023/07/02 02:29:45;;;;;;;23.30;8.88;;;;;;;;;;4821863;29;20441;-81
2023/07/02 02:32:11;;;;;;;27.48;9.40;;;;;;;;;;4837135;29;20576;-82
2023/07/02 02:34:36;;;;;;;25.13;8.02;;;14.90;90.60;;;;;;4836907;29;20054;-81
2023/07/02 02:37:02;;;;;;;24.30;8.63;;;;;;;;;;4791346;29;20053;-81
2023/07/02 02:39:28;;;;;;;27.17;8.70;;;;;;;;;;4821431;29;20050;-81
2023/07/02 02:41:54;;;;;;;24.83;8.68;;;14.80;90.90;;;;;;4806225;29;20050;-81
2023/07/02 02:44:20;;;;;;;26.23;9.13;;;;;;;;;;4791366;29;20050;-81
2023/07/02 02:46:46;;;;;;;22.20;7.93;;;;;;;;;;4824903;29;20043;-81
2023/07/02 02:49:12;;;;;;;23.77;8.48;;;14.70;90.90;;;;;;4839956;29;20133;-81
2023/07/02 02:51:38;;;;;;;25.38;9.23;;;;;;;;;;4809457;29;20621;-81
2023/07/02 02:54:03;;;;;;;24.30;8.88;;;14.70;91.60;;;;;;4824486;29;20061;-81
2023/07/02 02:56:29;;;;;;;23.00;8.15;;;;;;;;;;4824445;29;20046;-81
2023/07/02 02:58:55;;;;;;;30.20;8.50;;;;;;;;;;4839506;29;20722;-82
2023/07/02 03:01:21;;;;;;;20.60;8.77;;;;;;;;;;4839904;29;20054;-81
2023/07/02 03:03:47;;;;;;;29.98;9.27;;;;;;;;;;4824509;29;20057;-82
2023/07/02 03:06:14;;;;;;;19.77;8.07;;;;;;;;;;4839577;29;20129;-82
2023/07/02 03:08:40;;;;;;;26.60;9.55;;;;;;;;;;4823990;29;20054;-81
2023/07/02 03:11:07;;;;;;;22.27;7.68;;;;;;;;;;4839247;29;20046;-81
2023/07/02 03:13:33;;;;;;;18.60;8.88;;;;;;;;;;4824202;29;20493;-81
2023/07/02 03:15:59;;;;;;;26.08;8.90;;;;;;;;;;4839578;29;20050;-81
2023/07/02 03:18:25;;;;;;;25.10;8.27;;;14.40;92.70;;;;;;4824116;29;20054;-81
2023/07/02 03:20:51;;;;;;;20.25;8.07;;;;;;;;;;4823850;29;20127;-81
2023/07/02 03:23:17;;;;;;;31.63;8.48;;;;;;;;;;4839518;29;20093;-81
2023/07/02 03:25:43;;;;;;;23.10;7.45;;;14.40;93.00;;;;;;4808826;29;20582;-81
2023/07/02 03:28:08;;;;;;;33.15;8.82;;;14.50;93.20;;;;;;4808803;29;20133;-81
2023/07/02 03:30:34;;;;;;;24.30;8.05;;;;;;;;;;4823890;29;20088;-80
2023/07/02 03:33:00;;;;;;;27.73;8.88;;;;;;;;;;4823881;29;20062;-81
2023/07/02 03:35:26;;;;;;;21.42;8.38;;;;;;;;;;4839238;29;20061;-83
2023/07/02 03:37:52;;;;;;;23.13;8.98;;;;;;;;;;4839053;29;20073;-82
2023/07/02 03:40:18;;;;;;;18.88;7.57;;;;;;;;;;4839311;29;20050;-81
2023/07/02 03:42:45;;;;;;;19.02;7.45;;;;;;;;;;4823835;29;20049;-81
2023/07/02 03:45:10;;;;;;;24.45;8.35;;;14.40;93.50;;;;;;4823736;29;20051;-82
2023/07/02 03:47:36;;;;;;;23.05;7.72;;;;;;;;;;4823713;29;20061;-81
2023/07/02 03:50:02;;;;;;;24.88;8.32;;;;;;;;;;4823330;29;20138;-81
2023/07/02 03:52:28;;;;;;;16.17;7.50;;;;;;;;;;4823650;29;20058;-81
2023/07/02 03:54:55;;;;;;;21.65;7.18;;;;;;;;;;4823706;29;20141;-81
2023/07/02 03:57:21;;;;;;;14.77;7.57;;;;;;;;;;4823258;29;20127;-81
2023/07/02 03:59:47;;;;;;;21.20;7.20;;;;;;;;;;4838636;29;20058;-81
2023/07/02 04:02:13;;;;;;;25.35;8.27;;;;;;;;;;4823753;29;20424;-82
2023/07/02 04:04:39;;;;;;;16.35;7.00;;;;;;;;;;4808092;29;20499;-82
2023/07/02 04:07:05;;;;;;;17.55;7.20;;;;;;;;;;4823445;29;20492;-81
2023/07/02 04:09:32;;;;;;;13.85;7.10;;;;;;;;;;4823486;29;20050;-81
2023/07/02 04:11:58;;;;;;;21.40;6.68;;;;;;;;;;4838421;29;20412;-81
2023/07/02 04:14:25;;;;;;;20.20;7.28;;;;;;;;;;4839252;29;20089;-83
2023/07/02 04:16:51;;;;;;;19.38;7.00;;;;;;;;;;4823631;29;20053;-81
2023/07/02 04:19:17;;;;;;;18.67;6.75;;;;;;;;;;4823450;29;20182;-82
2023/07/02 04:21:43;;;;;;;12.63;6.35;;;;;;;;;;4838549;29;20125;-81
2023/07/02 04:24:09;;;;;;;19.27;7.55;;;;;;;;;;4823178;29;20046;-82
2023/07/02 04:26:36;;;;;;;14.00;7.22;;;;;;;;;;4823508;29;20385;-81
2023/07/02 04:29:02;;;;;;;18.75;7.10;;;;;;;;;;4823225;29;20050;-83
2023/07/02 04:31:28;;;;;;;15.93;6.90;;;;;;;;;;4808186;29;20404;-81
2023/07/02 04:33:54;;;;;;;15.52;7.00;;;;;;;;;;4823017;29;20095;-82
2023/07/02 04:36:21;;;;;;;17.98;7.20;;;;;;;;;;4807840;29;20424;-82
2023/07/02 04:38:47;;;;;;;17.42;6.53;;;;;;;;;;4822914;29;20418;-82
2023/07/02 04:41:13;;;;;;;14.60;7.00;;;;;;;;;;4838186;29;20050;-82
2023/07/02 04:43:39;;;;;;;23.13;6.63;;;15.10;87.30;;;;;;4808026;29;20051;-81
2023/07/02 04:46:07;;;;;;;24.08;6.25;;;;;;;;;;4822659;29;20057;-81
2023/07/02 04:48:33;;;;;;;12.23;5.53;;;;;;;;;;4822865;29;20064;-81
2023/07/02 04:50:59;;;;;;;16.58;6.53;;;15.20;85.80;;;;;;4822801;29;20085;-81
2023/07/02 04:53:25;;;;;;;17.17;6.25;;;;;;;;;;4807474;29;20085;-81
2023/07/02 04:55:51;;;;;;;16.42;6.15;;;;;;;;;;4837841;29;20057;-81
2023/07/02 04:58:17;;;;;;;20.67;6.60;;;;;;;;;;4805188;29;20056;-83
2023/07/02 05:00:43;;;;;;;18.00;5.15;;;;;;;;;;4807321;29;20089;-81
2023/07/02 05:03:09;;;;;;;13.68;5.85;;;;;;;;;;4837710;29;20055;-80
2023/07/02 05:05:35;;;;;;;15.13;5.68;;;;;;;;;;4837890;29;20385;-80
2023/07/02 05:08:04;;;;;;;12.00;4.55;;;;;;;;;;4821889;29;20141;-81
2023/07/02 05:10:30;;;;;;;16.00;6.38;;;;;;;;;;4822070;29;20058;-81
2023/07/02 05:12:56;;;;;;;10.23;5.07;;;;;;;;;;4837494;29;20098;-82
2023/07/02 05:15:22;;;;;;;10.18;5.32;;;;;;;;;;4837532;29;20504;-81
2023/07/02 05:17:48;;;;;;;14.63;5.15;;;;;;;;;;4807059;29;20583;-82
2023/07/02 05:20:14;;;;;;;14.65;5.45;;;;;;;;;;4822406;29;20046;-81
2023/07/02 05:22:40;;;;;;;11.45;5.05;;;;;;;;;;4806737;29;20078;-81
2023/07/02 05:25:06;;;;;;;16.95;5.90;;;15.50;82.30;;;;;;4837339;29;20054;-81
2023/07/02 05:27:32;;;;;;;14.35;5.68;;;;;;;;;;4807302;29;20054;-81
2023/07/02 05:29:58;;;;;;;14.35;5.65;;;;;;;;;;4822138;29;20111;-81
2023/07/02 05:32:25;;;;;;;17.17;5.45;;;;;;;;;;4822195;29;20055;-81
2023/07/02 05:34:50;;;;;;;14.75;4.63;;;15.40;81.70;;;;;;4837481;29;20046;-81
2023/07/02 05:37:17;;;;;;;15.40;5.57;;;;;;;;;;4822122;29;20412;-81
2023/07/02 05:39:43;;;;;;;16.33;5.82;;;;;;;;;;4837215;29;20137;-82
2023/07/02 05:42:08;;;;;;;21.17;6.53;;;15.50;83.50;;;;;;4837465;29;20058;-81
2023/07/02 05:44:35;;;;;;;13.43;5.35;;;;;;;;;;4807034;29;20050;-81
2023/07/02 05:47:01;;;;;;;15.10;6.80;;;;;;;;;;4822061;29;20457;-81
2023/07/02 05:49:27;;;;;;;15.68;5.32;;;;;;;;;;4821604;29;20054;-81
2023/07/02 05:51:53;;;;;;;16.33;5.90;;;15.90;83.10;;;;;;4822131;29;20486;-81
2023/07/02 05:54:19;;;;;;;12.02;4.78;;;;;;;;;;4806694;29;20146;-81
2023/07/02 05:56:44;;;;;;;13.60;5.70;;;15.80;82.40;;;;;;4806526;29;20053;-81
2023/07/02 05:59:12;;;;;;;23.30;6.53;;;;;;;;;;4821636;29;20062;-81
2023/07/02 06:01:38;;;;;;;16.20;5.22;;;15.70;81.50;;;;;;4821980;29;20500;-81
2023/07/02 06:04:04;;;;;;;18.77;5.63;;;;;;;;;;4822053;29;20061;-81
2023/07/02 06:06:29;;;;;;;13.25;6.15;;;15.90;81.10;;;;;;4836895;29;20369;-81
2023/07/02 06:08:55;;;;;;;15.20;5.63;;;;;;;;;;4806780;29;20114;-83
2023/07/02 06:11:21;;;;;;;11.88;5.47;;;15.60;78.30;;;;;;4806647;29;20039;-83
2023/07/02 06:13:47;;;;;;;11.15;4.88;;;;;;;;;;4791543;29;20508;-83
2023/07/02 06:16:13;;;;;;;12.57;4.97;;;16.10;79.80;;;;;;4836798;29;20049;-80
2023/07/02 06:18:39;;;;;;;12.80;4.63;;;;;;;;;;4821972;29;20047;-81
2023/07/02 06:21:05;;;;;;;12.95;5.88;;;;;;;;;;4840774;29;20046;-81
2023/07/02 06:23:43;;;;;;;11.77;3.97;;;16.30;75.30;;;;;;4825050;29;20415;-80
2023/07/02 06:26:09;;;;;;;16.92;5.30;;;;;;;;;;4810227;29;20427;-81
2023/07/02 06:28:34;;;;;;;12.32;4.80;;;16.20;73.70;;;;;;4825002;29;20499;-82
2023/07/02 06:31:00;;;;;;;10.20;3.92;;;;;;;;;;4825254;29;20050;-83
2023/07/02 06:33:27;;;;;;;11.35;3.78;;;;;;;;;;4810118;29;20127;-82
2023/07/02 06:35:53;;;;;;;11.52;4.05;;;;;;;;;;4825055;29;20054;-83
2023/07/02 06:38:19;;;;;;;12.05;4.00;;;;;;;;;;4840440;29;20435;-81
2023/07/02 06:40:45;;;;;;;9.93;3.53;;;;;;;;;;4825040;29;20523;-83
2023/07/02 06:43:11;;;;;;;13.77;4.80;;;;;;;;;;4824508;29;20050;-82
2023/07/02 06:45:37;;;;;;;9.75;4.03;;;16.50;71.20;;;;;;4809746;29;20099;-82
2023/07/02 06:48:03;;;;;;;11.35;5.07;;;;;;;;;;4824861;29;20046;-87
2023/07/02 06:50:29;;;;;;;8.80;3.38;;;;;;;;;;4839807;29;20137;-83
2023/07/02 06:52:55;;;;;;;12.57;4.22;;;;;;;;;;4809512;29;20093;-83
2023/07/02 06:55:20;;;;;;;14.27;5.00;;;16.50;71.40;;;;;;4840051;29;20418;-81
2023/07/02 06:57:47;;;;;;;22.65;3.85;;;;;;;;;;4809141;29;20050;-82
2023/07/02 07:00:13;;;;;;;10.07;3.33;;;16.90;71.00;;;;;;4839632;29;20058;-81
2023/07/02 07:02:40;;;;;;;8.70;4.35;;;;;;;;;;4809304;29;20062;-80
2023/07/02 07:05:06;;;;;;;6.13;3.42;;;16.80;68.70;;;;;;4824452;29;20067;-80
2023/07/02 07:07:32;;;;;;;7.35;2.83;;;;;;;;;;4809755;29;20149;-80
2023/07/02 07:09:58;;;;;;;10.82;3.53;;;;;;;;;;4839906;29;20091;-80
2023/07/02 07:12:24;;;;;;;9.18;3.30;;;;;;;;;;4839500;29;20058;-81
2023/07/02 07:14:50;;;;;;;7.72;3.20;;;;;;;;;;4809021;29;20072;-80
2023/07/02 07:17:16;;;;;;;10.05;2.97;;;17.00;67.60;;;;;;4839386;29;20054;-79
2023/07/02 07:19:42;;;;;;;10.43;3.22;;;;;;;;;;4839479;29;20050;-81
2023/07/02 07:22:08;;;;;;;10.48;3.67;;;16.80;64.80;;;;;;4839545;29;20043;-80
2023/07/02 07:24:33;;;;;;;9.95;3.63;;;16.60;66.20;;;;;;4823996;29;20569;-80
2023/07/02 07:26:59;;;;;;;13.98;3.72;;;;;;;;;;4823993;29;20050;-80
2023/07/02 07:29:25;;;;;;;6.88;3.03;;;;;;;;;;4824072;29;20146;-80
2023/07/02 07:31:52;;;;;;;10.85;3.40;;;;;;;;;;4823308;29;20043;-80
2023/07/02 07:34:18;;;;;;;15.00;3.40;;;;;;;;;;4808997;29;20416;-80
2023/07/02 07:36:44;;;;;;;9.70;3.92;;;;;;;;;;4808575;29;20050;-80
2023/07/02 07:39:10;;;;;;;13.73;3.53;;;;;;;;;;4839211;29;20457;-81
2023/07/02 07:41:36;;;;;;;29.25;3.90;;;;;;;;;;4839128;29;20035;-81
2023/07/02 07:44:02;;;;;;;11.18;4.47;;;;;;;;;;4808438;29;20111;-84
2023/07/02 07:46:28;;;;;;;7.13;3.28;;;;;;;;;;4838871;29;20050;-81
2023/07/02 07:48:54;;;;;;;10.75;3.88;;;;;;;;;;4808284;29;20069;-81
2023/07/02 07:51:20;;;;;;;7.15;3.17;;;;;;;;;;4808574;29;20102;-82
2023/07/02 07:53:46;;;;;;;5.70;3.40;;;;;;;;;;4839099;29;20096;-81
2023/07/02 07:56:12;;;;;;;10.38;2.35;;;;;;;;;;4808365;29;20054;-82
2023/07/02 07:58:38;;;;;;;11.38;3.20;;;17.50;60.70;;;;;;4822358;29;20061;-81
2023/07/02 08:01:05;;;;;;;8.80;3.38;;;;;;;;;;4792160;29;20058;-83
2023/07/02 08:03:31;;;;;;;12.80;3.55;;;;;;;;;;4823447;29;20050;-84
2023/07/02 08:05:56;;;;;;;11.30;3.45;;;17.40;61.80;;;;;;4808298;29;20046;-83
2023/07/02 08:08:22;;;;;;;6.93;3.30;;;;;;;;;;4808518;29;20050;-83
2023/07/02 08:10:50;;;;;;;6.63;2.88;;;17.20;62.50;;;;;;4809004;29;20050;-83
2023/07/02 08:13:17;;;;;;;7.93;3.55;;;;;;;;;;4824673;29;20053;-83
2023/07/02 08:15:43;;;;;;;13.52;3.70;;;;;;;;;;4825668;29;20051;-84
2023/07/02 08:18:11;;;;;;;7.10;3.35;;;;;;;;;;4825144;29;20050;-82
2023/07/02 08:20:37;;;;;;;5.13;3.20;;;;;;;;;;4824475;29;20068;-81
2023/07/02 08:23:03;;;;;;;11.57;3.92;;;;;;;;;;4838049;29;20046;-81
2023/07/02 08:25:30;;;;;;;12.68;3.67;;;16.60;72.70;;;;;;4838499;29;20521;-81
2023/07/02 08:27:56;;;;;;;8.75;3.70;;;;;;;;;;4807767;29;20504;-81
2023/07/02 08:30:22;;;;;;;8.27;3.65;;;;;;;;;;4823185;29;20050;-82
2023/07/02 08:32:48;;;;;;;11.93;3.67;;;;;;;;;;4822932;29;20055;-81
2023/07/02 08:35:14;;;;;;;10.82;4.30;;;;;;;;;;4807560;29;20054;-82
2023/07/02 08:37:40;;;;;;;7.43;3.30;;;16.50;74.30;;;;;;4838163;29;20520;-82
2023/07/02 08:40:14;;;;;;;11.77;3.35;;;16.90;72.50;;;;;;4823179;29;20195;-82
2023/07/02 08:42:41;;;;;;;10.68;3.58;;;;;;;;;;4791770;29;20058;-80
2023/07/02 08:45:07;;;;;;;7.60;3.80;;;17.10;69.10;;;;;;4822826;29;20133;-83
2023/07/02 08:47:33;;;;;;;11.57;3.42;;;;;;;;;;4807648;29;20504;-84
2023/07/02 08:49:59;;;;;;;11.75;3.88;;;;;;;;;;4822872;29;20047;-82
2023/07/02 08:52:25;;;;;;;8.60;3.22;;;17.20;68.00;;;;;;4838220;29;20046;-82
2023/07/02 08:54:51;;;;;;;14.25;4.07;;;;;;;;;;4823059;29;20385;-82
2023/07/02 08:57:17;;;;;;;16.85;3.60;;;;;;;;;;4807401;29;20054;-83
2023/07/02 08:59:43;;;;;;;14.68;4.85;;;;;;;;;;4822434;29;20058;-83
2023/07/02 09:02:09;;;;;;;10.93;3.63;;;17.10;67.60;;;;;;4822390;29;20133;-82
2023/07/02 09:04:35;;;;;;;8.15;3.63;;;;;;;;;;4807566;29;20104;-82
2023/07/02 09:07:10;;;;;;;12.98;2.55;;;17.20;65.20;;;;;;4807366;29;20038;-82
2023/07/02 09:09:50;;;;;;;7.10;2.65;;;17.30;63.00;;;;;;4822859;29;20050;-82
2023/07/02 09:12:24;;;;;;;5.78;2.85;;;17.60;61.60;;;;;;4807186;29;20492;-82
2023/07/02 09:14:57;;;;;;;;;;;17.60;58.80;;;;;;4808023;29;20137;-82
2023/07/02 09:17:30;;;;;;;12.07;2.30;;;17.60;56.40;;;;;;4791964;29;19924;-82
2023/07/02 09:19:56;;;;;;;5.78;2.50;;;;;;;;;;4806724;29;20078;-82
2023/07/02 09:22:23;;;;;;;7.72;3.05;;;;;;;;;;4837224;29;20085;-82
2023/07/02 09:24:59;;;;;;;13.13;3.47;;;17.80;58.60;;;;;;4837881;29;20050;-81
2023/07/02 09:27:39;;;;;;;10.13;2.83;;;17.90;55.60;;;;;;4792206;29;20094;-82
2023/07/02 09:30:09;;;;;;;8.20;2.25;;;17.90;56.80;;;;;;4807272;29;20054;-81
2023/07/02 09:32:36;;;;;;;9.93;2.53;;;;;;;;;;4806963;29;20058;-82
2023/07/02 09:35:02;;;;;;;10.18;3.33;;;;;;;;;;4822139;29;20085;-82
2023/07/02 09:37:28;;;;;;;5.63;2.03;;;;;;;;;;4822063;29;20047;-82
2023/07/02 09:39:55;;;;;;;10.98;3.20;;;18.20;49.80;;;;;;4837107;29;20096;-81
2023/07/02 09:42:22;;;;;;;4.63;2.42;;;17.90;50.30;;;;;;4822092;29;20049;-81
2023/07/02 09:44:51;;;;;;;9.20;2.85;;;17.90;51.30;;;;;;4822581;29;20058;-81
2023/07/02 09:47:19;;;;;;;10.70;3.17;;;18.10;52.10;;;;;;4807038;29;20054;-82
2023/07/02 09:49:52;;;;;;;9.93;2.70;;;18.40;54.90;;;;;;4806663;29;20495;-83
2023/07/02 09:52:18;;;;;;;8.50;3.20;;;;;;;;;;4852800;29;20407;-83
2023/07/02 09:54:45;;;;;;;9.50;3.35;;;18.10;52.20;;;;;;4824402;29;20374;-84
2023/07/02 09:57:11;;;;;;;6.20;2.95;;;;;;;;;;4810744;29;20056;-84
2023/07/02 09:59:38;;;;;;;8.15;3.33;;;18.20;53.10;;;;;;4840704;29;20500;-84
2023/07/02 10:02:11;;;;;;;8.38;3.40;;;18.20;56.80;;;;;;4826348;29;20069;-84
2023/07/02 10:04:42;;;;;;;8.10;3.22;;;18.30;57.50;;;;;;4810752;29;20132;-84
2023/07/02 10:07:08;;;;;;;7.47;3.08;;;;;;;;;;4841047;29;20046;-84
2023/07/02 10:09:45;;;;;;;6.38;2.60;;;18.30;49.70;;;;;;4825560;29;20053;-83
2023/07/02 10:12:28;;;;;;;6.05;2.55;;;18.60;53.30;;;;;;4810435;29;20050;-84
2023/07/02 10:14:56;;;;;;;6.37;2.57;;;18.20;50.50;;;;;;4810781;29;20039;-83
2023/07/02 10:17:28;;;;;;;10.18;2.60;;;;;;;;;;4810208;29;20354;-83
2023/07/02 10:19:56;;;;;;;9.50;3.60;;;18.50;53.20;;;;;;4840611;29;20050;-82
2023/07/02 10:22:22;;;;;;;8.30;3.10;;;;;;;;;;4809945;29;20046;-83
2023/07/02 10:24:59;;;;;;;5.80;2.90;;;18.40;54.80;;;;;;4825221;29;20061;-83
2023/07/02 10:27:40;;;;;;;8.55;2.90;;;18.30;54.90;;;;;;4795175;29;20053;-83
2023/07/02 10:30:09;;;;;;;10.32;3.92;;;18.00;55.00;;;;;;4795028;29;20101;-83
2023/07/02 10:32:38;;;;;;;10.13;3.45;;;;;;;;;;4825373;29;20054;-84
2023/07/02 10:35:13;;;;;;;4.63;2.95;;;18.20;56.30;;;;;;4824871;29;20141;-84
2023/07/02 10:37:40;;;;;;;10.38;3.75;;;;;;;;;;4809802;29;20069;-83
2023/07/02 10:40:12;;;;;;;8.50;2.92;;;18.60;57.80;;;;;;4810513;29;20511;-83
2023/07/02 10:42:50;;;;;;;5.68;3.13;;;18.70;54.90;;;;;;4824640;29;20061;-84
2023/07/02 10:45:16;;;;;;;;;;;18.70;54.20;;;;;;4825470;29;20046;-84
2023/07/02 10:47:42;;;;;;;8.05;3.00;;;;;;;;;;4794779;29;19981;-83
2023/07/02 10:50:20;;;;;;;7.28;2.88;;;19.10;51.00;;;;;;4824881;29;20081;-83
2023/07/02 10:52:52;;;;;;;6.10;2.80;;;;;;;;;;4810218;29;20118;-83
2023/07/02 10:55:24;;;;;;;7.57;3.45;;;19.10;53.90;;;;;;4810119;29;20054;-84
2023/07/02 10:58:02;;;;;;;5.88;2.88;;;19.40;52.80;;;;;;4809652;29;20141;-86
2023/07/02 11:00:28;;;;;;;10.18;3.25;;;;;;;;;;4807565;29;20062;-84
2023/07/02 11:02:54;;;;;;;9.07;3.63;;;;;;;;;;4809741;29;20503;-85
2023/07/02 11:05:20;;;;;;;11.52;3.65;;;19.00;53.00;;;;;;4808663;29;20046;-84
2023/07/02 11:07:46;;;;;;;8.32;2.42;;;19.00;53.20;;;;;;4824420;29;20114;-84
2023/07/02 11:10:19;;;;;;;7.43;2.88;;;19.10;50.40;;;;;;4794348;29;20063;-84
2023/07/02 11:12:45;;;;;;;5.53;2.60;;;;;;;;;;4839629;29;20527;-84
2023/07/02 11:15:13;;;;;;;12.73;2.97;;;19.60;51.60;;;;;;4809452;29;20504;-84
2023/07/02 11:17:41;;;;;;;7.30;2.72;;;;;;;;;;4809150;29;20057;-84
2023/07/02 11:20:08;;;;;;;10.45;2.90;;;19.50;49.60;;;;;;4839485;29;20525;-83
2023/07/02 11:22:35;;;;;;;7.78;2.17;;;;;;;;;;4809054;29;20054;-82
2023/07/02 11:25:18;;;;;;;4.95;1.98;;;19.80;45.40;;;;;;4824307;29;20046;-83
2023/07/02 11:27:44;;;;;;;11.48;2.60;;;19.70;46.20;;;;;;4794136;29;20174;-83
2023/07/02 11:30:11;;;;;;;9.32;2.42;;;20.10;49.90;;;;;;4824138;29;20053;-83
2023/07/02 11:32:54;;;;;;;7.13;2.90;;;20.20;50.10;;;;;;4808932;29;20062;-83
2023/07/02 11:35:21;;;;;;;8.57;2.60;;;20.00;46.30;;;;;;4808917;29;20042;-82
2023/07/02 11:37:48;;;;;;;6.80;2.38;;;19.90;48.60;;;;;;4793878;29;20054;-81
2023/07/02 11:40:15;;;;;;;9.32;2.33;;;;;;;;;;4808793;29;20060;-82
2023/07/02 11:42:41;;;;;;;9.93;3.22;;;20.00;47.70;;;;;;4839335;29;20504;-81
2023/07/02 11:45:08;;;;;;;10.52;3.53;;;19.90;45.50;;;;;;4793649;29;20061;-81
2023/07/02 11:47:40;;;;;;;;;;;20.10;46.40;;;;;;4809074;29;20054;-81
2023/07/02 11:50:06;;;;;;;6.03;2.40;;;19.90;48.90;;;;;;4808366;29;19931;-82
2023/07/02 11:52:33;;;;;;;7.88;3.33;;;;;;;;;;4808486;29;20050;-82
2023/07/02 11:54:59;;;;;;;3.92;2.50;;;19.70;49.80;;;;;;4808511;29;20523;-81
2023/07/02 11:57:26;;;;;;;9.50;2.88;;;;;;;;;;4808574;29;20043;-81
2023/07/02 11:59:52;;;;;;;8.43;2.33;;;;;;;;;;4823587;29;20065;-81
2023/07/02 12:02:19;;;;;;;7.70;2.30;;;;;;;;;;4824036;29;20060;-81
2023/07/02 12:04:45;;;;;;;7.20;3.10;;;19.40;50.30;;;;;;4823454;29;20442;-82
2023/07/02 12:07:13;;;;;;;9.05;3.10;;;;;;;;;;4823265;29;20097;-81
2023/07/02 12:09:39;;;;;;;6.05;2.60;;;;;;;;;;4838603;29;20397;-81
2023/07/02 12:12:05;;;;;;;7.13;3.35;;;19.50;48.00;;;;;;4838610;29;20133;-81
2023/07/02 12:14:31;;;;;;;7.53;3.80;;;;;;;;;;4808522;29;20394;-81
2023/07/02 12:16:57;;;;;;;9.60;2.85;;;;;;;;;;4822887;29;20042;-81
2023/07/02 12:19:23;;;;;;;9.15;3.55;;;;;;;;;;4807585;29;20070;-81
2023/07/02 12:21:49;;;;;;;6.55;2.45;;;;;;;;;;4823004;29;20129;-81
2023/07/02 12:24:16;;;;;;;7.70;2.70;;;;;;;;;;4823275;29;20439;-81
2023/07/02 12:26:48;;;;;;;5.28;3.13;;;;;;;;;;4824256;29;20043;-81
2023/07/02 12:29:13;;;;;;;5.80;2.45;;;19.30;49.10;;;;;;4823083;29;20058;-81
2023/07/02 12:31:39;;;;;;;6.65;3.05;;;19.20;48.30;;;;;;4807751;29;20067;-81
2023/07/02 12:34:05;;;;;;;5.95;2.70;;;19.40;47.80;;;;;;4823213;29;20101;-81
2023/07/02 12:36:31;;;;;;;4.57;2.67;;;;;;;;;;4823077;29;20588;-81
2023/07/02 12:38:57;;;;;;;9.85;3.50;;;;;;;;;;4838375;29;20050;-81
2023/07/02 12:41:23;;;;;;;6.00;2.80;;;;;;;;;;4807851;29;20407;-81
2023/07/02 12:43:49;;;;;;;6.28;2.60;;;;;;;;;;4838335;29;20145;-81
2023/07/02 12:46:15;;;;;;;7.03;3.00;;;;;;;;;;4807707;29;20043;-83
2023/07/02 12:48:41;;;;;;;6.45;2.42;;;19.30;44.80;;;;;;4822885;29;20051;-81
2023/07/02 12:51:07;;;;;;;9.27;3.00;;;;;;;;;;4792981;29;20385;-81
2023/07/02 12:53:33;;;;;;;9.85;3.92;;;19.10;47.80;;;;;;4807738;29;20046;-78
2023/07/02 12:55:58;;;;;;;7.55;3.03;;;18.80;48.60;;;;;;4807401;29;20061;-79
2023/07/02 12:58:24;;;;;;;5.72;3.25;;;18.70;49.90;;;;;;4807365;29;20107;-78
2023/07/02 13:00:50;;;;;;;8.52;3.58;;;18.90;50.70;;;;;;4823695;29;20059;-79
2023/07/02 13:03:20;;;;;;;10.20;3.60;;;19.10;51.20;;;;;;4822789;29;20103;-78
2023/07/02 13:05:46;;;;;;;7.35;3.65;;;;;;;;;;4837559;29;20046;-79
2023/07/02 13:08:12;;;;;;;9.07;4.78;;;19.10;51.30;;;;;;4822419;29;20077;-78
2023/07/02 13:10:37;;;;;;;8.70;3.75;;;19.40;52.00;;;;;;4822679;29;20072;-79
2023/07/02 13:13:03;;;;;;;7.32;3.53;;;19.10;52.30;;;;;;4807457;29;20523;-79
2023/07/02 13:15:29;;;;;;;12.43;4.47;;;;;;;;;;4822595;29;20060;-77
2023/07/02 13:17:55;;;;;;;9.38;3.60;;;;;;;;;;4807008;29;20522;-78
2023/07/02 13:20:21;;;;;;;15.85;4.47;;;;;;;;;;4822166;29;20052;-78
2023/07/02 13:22:47;;;;;;;8.35;3.88;;;;;;;;;;4822610;29;20137;-79
2023/07/02 13:25:13;;;;;;;9.15;3.65;;;18.80;51.90;;;;;;4837842;29;20412;-78
2023/07/02 13:27:39;;;;;;;6.90;3.50;;;18.80;52.80;;;;;;4822353;29;20114;-78
2023/07/02 13:30:05;;;;;;;9.60;4.22;;;18.70;53.40;;;;;;4821836;29;20114;-79
2023/07/02 13:32:31;;;;;;;9.25;3.67;;;;;;;;;;4792440;29;20466;-92
2023/07/02 13:34:57;;;;;;;9.48;3.58;;;18.70;51.90;;;;;;4822139;29;20042;-80
2023/07/02 13:37:22;;;;;;;11.48;4.60;;;18.70;51.00;;;;;;4807286;29;20054;-86
2023/07/02 13:39:49;;;;;;;10.70;4.20;;;18.70;51.40;;;;;;4808989;29;20051;-88
2023/07/02 13:42:15;;;;;;;8.88;3.80;;;18.60;48.50;;;;;;4808492;29;20058;-88
2023/07/02 13:44:48;;;;;;;9.70;4.00;;;18.60;52.10;;;;;;4838492;29;20062;-79
2023/07/02 13:47:14;;;;;;;9.88;3.72;;;;;;;;;;4809060;29;20054;-82